KBTA

Blair Municipal Airport

Blair, Nebraska, USA
METAR KBTA 191235Z AUTO 01012KT 3/4SM BR OVC002 19/19 A2992 RMK AO2 LTG DSNT N T01930190
Observed Flight Rules
Sep-19 @ 12:35 UTC (20 minutes ago) Instrument Flight Rules
Wind Visibility Clouds Conditions
10° at 12 knots 3/4 miles
  • Overcast at 200' AGL
  • Mist
Temperatures Readings
Current 19°C / 66°F
Dewpoint 19°C / 66°F
Humidity 100%
Altimeter 29.92" Hg
Pressure 1013 hPa
Elevation 396
METAR KBTA 191235Z AUTO 01012KT 3/4SM BR OVC002 19/19 A2992 RMK AO2 LTG DSNT N T01930190
Observed Flight Rules
Sep-19 @ 12:35 UTC
(20 minutes ago)
LIFR
Wind Visibility
10° at 12 knots 3/4 miles
Clouds
  • Overcast at 200' AGL
Conditions
  • Mist
Temperature Dewpoint
19°C / 66°F 19°C / 66°F
Humidity Altimeter Pressure
100% 29.92" Hg 1013 hPa